Time;durP1;ratioP1;P1;durP2;ratioP2;P2;SDS_P1;SDS_P2;PMS_P1;PMS_P2;Temp;Humidity;BMP_temperature;BMP_pressure;BME280_temperature;BME280_humidity;BME280_pressure;Samples;Min_cycle;Max_cycle;Signal;HPM_P1;HPM_P2
2022/05/18 00:01:17;;;;;;;11.98;4.60;;;16.60;99.90;;;;;;5139167;27;20556;-78
2022/05/18 00:03:45;;;;;;;9.60;4.18;;;16.60;99.90;;;;;;5121906;27;20043;-78
2022/05/18 00:06:11;;;;;;;9.55;4.75;;;16.60;99.90;;;;;;5136037;27;20051;-77
2022/05/18 00:08:37;;;;;;;7.00;4.20;;;16.50;99.90;;;;;;5117900;27;20501;-77
2022/05/18 00:11:10;;;;;;;6.28;4.65;;;16.50;99.90;;;;;;5121125;27;20043;-78
2022/05/18 00:13:36;;;;;;;10.43;4.45;;;16.50;99.90;;;;;;5139050;27;20035;-77
2022/05/18 00:16:03;;;;;;;8.55;4.10;;;16.50;99.90;;;;;;5118657;27;20054;-77
2022/05/18 00:18:28;;;;;;;13.00;3.90;;;16.50;99.90;;;;;;5138012;27;20119;-77
2022/05/18 00:20:54;;;;;;;6.13;3.75;;;16.40;99.90;;;;;;5116916;27;20071;-77
2022/05/18 00:23:20;;;;;;;7.65;4.03;;;16.40;99.90;;;;;;5118193;27;20071;-77
2022/05/18 00:25:46;;;;;;;8.00;3.85;;;16.40;99.90;;;;;;5117005;27;20422;-77
2022/05/18 00:28:12;;;;;;;10.60;4.80;;;16.40;99.90;;;;;;5123091;27;20043;-77
2022/05/18 00:30:38;;;;;;;8.70;4.30;;;16.40;99.90;;;;;;5139632;27;20031;-77
2022/05/18 00:33:09;;;;;;;7.63;4.28;;;16.40;99.90;;;;;;5135645;27;20035;-77
2022/05/18 00:35:37;;;;;;;8.48;4.35;;;16.40;99.90;;;;;;5117408;27;20130;-77
2022/05/18 00:38:04;;;;;;;6.82;4.32;;;16.40;99.90;;;;;;5117776;27;20054;-77
2022/05/18 00:40:31;;;;;;;8.90;4.85;;;16.40;99.90;;;;;;5124035;27;20479;-77
2022/05/18 00:42:56;;;;;;;9.77;4.93;;;16.30;99.90;;;;;;5136357;27;20047;-77
2022/05/18 00:45:23;;;;;;;12.32;5.15;;;16.30;99.90;;;;;;5117841;27;20058;-77
2022/05/18 00:47:48;;;;;;;9.77;4.60;;;16.30;99.90;;;;;;5116874;27;20051;-77
2022/05/18 00:50:32;;;;;;;11.98;5.20;;;16.30;99.90;;;;;;5135480;27;20042;-77
2022/05/18 00:53:18;;;;;;;7.88;4.78;;;16.30;99.90;;;;;;5117737;27;20051;-77
2022/05/18 00:55:54;;;;;;;11.50;4.68;;;16.20;99.90;;;;;;5134572;27;20047;-77
2022/05/18 00:58:35;;;;;;;8.25;5.05;;;16.20;99.90;;;;;;5100507;27;20051;-77
2022/05/18 01:01:01;;;;;;;7.72;4.60;;;16.20;99.90;;;;;;5134752;27;20043;-77
2022/05/18 01:03:39;;;;;;;10.88;5.05;;;16.20;99.90;;;;;;5135824;27;20074;-77
2022/05/18 01:06:16;;;;;;;8.85;5.47;;;16.20;99.90;;;;;;5116549;27;20058;-77
2022/05/18 01:08:54;;;;;;;9.55;4.82;;;16.10;99.90;;;;;;5141327;27;20034;-78
2022/05/18 01:11:20;;;;;;;9.38;4.95;;;16.10;99.90;;;;;;5139864;27;20039;-77
2022/05/18 01:13:46;;;;;;;11.75;5.60;;;16.10;99.90;;;;;;5135576;27;20359;-77
2022/05/18 01:16:13;;;;;;;12.52;5.32;;;16.00;99.90;;;;;;5115904;27;20501;-77
2022/05/18 01:18:39;;;;;;;6.60;4.43;;;16.00;99.90;;;;;;5135543;27;20046;-77
2022/05/18 01:21:05;;;;;;;9.35;4.97;;;16.00;99.90;;;;;;5134845;27;20043;-77
2022/05/18 01:23:54;;;;;;;12.18;5.88;;;15.90;99.90;;;;;;5116676;27;20058;-77
2022/05/18 01:26:38;;;;;;;13.48;5.38;;;15.90;99.90;;;;;;5134845;27;20548;-77
2022/05/18 01:29:05;;;;;;;8.98;5.80;;;15.90;99.90;;;;;;5116119;27;20114;-77
2022/05/18 01:31:51;;;;;;;9.32;4.97;;;15.80;99.90;;;;;;5134653;27;20044;-77
2022/05/18 01:34:22;;;;;;;7.47;5.03;;;15.90;99.90;;;;;;5144619;27;20431;-77
2022/05/18 01:36:48;;;;;;;7.32;4.72;;;15.80;99.90;;;;;;5119146;27;20137;-77
2022/05/18 01:39:29;;;;;;;13.18;5.55;;;15.80;99.90;;;;;;5117089;27;20509;-76
2022/05/18 01:42:37;;;;;;;15.00;6.10;;;15.70;99.90;;;;;;5099206;27;20035;-77
2022/05/18 01:45:04;;;;;;;7.22;5.30;;;15.80;99.90;;;;;;5103940;27;20119;-77
2022/05/18 01:47:35;;;;;;;7.68;4.80;;;15.70;99.90;;;;;;5135152;27;20100;-77
2022/05/18 01:50:05;;;;;;;8.52;5.40;;;15.70;99.90;;;;;;5150770;27;20129;-77
2022/05/18 01:52:32;;;;;;;12.77;5.88;;;15.70;99.90;;;;;;5133746;27;20043;-77
2022/05/18 01:54:58;;;;;;;13.13;4.72;;;15.10;99.90;;;;;;5135073;27;20118;-77
2022/05/18 01:57:24;;;;;;;9.48;5.85;;;15.60;99.90;;;;;;5134367;27;20133;-77
2022/05/18 01:59:50;;;;;;;10.15;6.03;;;15.60;99.90;;;;;;5107913;27;20039;-77
2022/05/18 02:02:16;;;;;;;9.07;5.50;;;15.60;99.90;;;;;;5116426;27;20084;-76
2022/05/18 02:04:43;;;;;;;8.90;5.50;;;15.50;99.90;;;;;;5133394;27;20047;-78
2022/05/18 02:07:11;;;;;;;8.50;5.35;;;15.60;99.90;;;;;;5124296;27;20394;-77
2022/05/18 02:09:38;;;;;;;8.38;4.63;;;15.50;99.90;;;;;;5139078;27;20062;-77
2022/05/18 02:12:07;;;;;;;10.43;6.25;;;15.50;99.90;;;;;;5098686;27;20053;-77
2022/05/18 02:14:33;;;;;;;9.38;5.70;;;15.40;99.90;;;;;;5134175;27;20402;-77
2022/05/18 02:16:59;;;;;;;10.57;6.32;;;15.40;99.90;;;;;;5124505;27;20061;-77
2022/05/18 02:19:25;;;;;;;8.43;4.97;;;15.30;99.90;;;;;;5117525;28;20387;-77
2022/05/18 02:21:50;;;;;;;8.43;5.07;;;15.30;99.90;;;;;;5099083;28;20103;-77
2022/05/18 02:24:17;;;;;;;8.00;5.03;;;15.30;99.90;;;;;;5115556;28;20031;-77
2022/05/18 02:26:43;;;;;;;7.55;5.28;;;15.30;99.90;;;;;;5133703;28;20115;-77
2022/05/18 02:29:09;;;;;;;10.73;5.38;;;15.30;99.90;;;;;;5126672;27;20519;-77
2022/05/18 02:31:35;;;;;;;9.65;4.80;;;15.30;99.90;;;;;;5136723;27;20167;-77
2022/05/18 02:34:01;;;;;;;10.85;4.88;;;15.30;99.90;;;;;;5140546;27;20044;-78
2022/05/18 02:36:27;;;;;;;11.70;4.40;;;15.20;99.90;;;;;;5099112;28;20043;-77
2022/05/18 02:38:53;;;;;;;6.22;4.45;;;15.10;99.90;;;;;;5115441;28;20037;-77
2022/05/18 02:41:19;;;;;;;7.78;5.07;;;15.10;99.90;;;;;;5133696;28;20063;-77
2022/05/18 02:43:45;;;;;;;10.30;4.90;;;15.10;99.90;;;;;;5115273;27;20122;-77
2022/05/18 02:46:17;;;;;;;8.00;4.82;;;15.10;99.90;;;;;;5115586;28;20039;-77
2022/05/18 02:48:43;;;;;;;9.55;4.90;;;15.00;99.90;;;;;;5115416;28;20047;-77
2022/05/18 02:51:10;;;;;;;8.25;4.32;;;14.90;99.90;;;;;;5134363;28;20067;-77
2022/05/18 02:53:36;;;;;;;13.23;4.43;;;14.90;99.90;;;;;;5133004;27;20035;-77
2022/05/18 02:56:06;;;;;;;8.80;5.03;;;14.90;99.90;;;;;;5113556;27;20058;-77
2022/05/18 02:58:48;;;;;;;6.90;4.85;;;14.80;99.90;;;;;;5129740;28;20501;-77
2022/05/18 03:01:20;;;;;;;15.82;5.93;;;14.80;99.90;;;;;;5115183;28;20363;-77
2022/05/18 03:03:45;;;;;;;8.43;4.97;;;14.80;99.90;;;;;;5133779;27;20051;-77
2022/05/18 03:06:14;;;;;;;9.20;5.75;;;14.70;99.90;;;;;;5115730;28;20043;-77
2022/05/18 03:08:42;;;;;;;7.45;5.43;;;14.70;99.90;;;;;;5132077;27;20461;-77
2022/05/18 03:11:09;;;;;;;9.05;6.22;;;14.70;99.90;;;;;;5132054;28;20077;-77
2022/05/18 03:13:35;;;;;;;10.63;7.03;;;14.80;99.90;;;;;;5133183;27;20093;-77
2022/05/18 03:16:02;;;;;;;10.80;6.35;;;14.70;99.90;;;;;;5135342;27;20549;-77
2022/05/18 03:18:28;;;;;;;8.52;6.80;;;14.70;99.90;;;;;;5127242;27;20486;-77
2022/05/18 03:23:42;;;;;;;12.05;6.90;;;14.70;99.90;;;;;;5135617;27;20043;-77
2022/05/18 03:26:14;;;;;;;9.95;6.10;;;14.70;99.90;;;;;;5115639;28;20429;-77
2022/05/18 03:28:43;;;;;;;10.20;6.28;;;14.70;99.90;;;;;;5114641;27;20047;-77
2022/05/18 03:31:11;;;;;;;8.65;6.45;;;14.70;99.90;;;;;;5119207;27;20035;-77
2022/05/18 03:33:38;;;;;;;8.38;5.90;;;14.70;99.90;;;;;;5149869;27;20047;-77
2022/05/18 03:36:06;;;;;;;12.73;7.20;;;14.70;99.90;;;;;;5157513;27;20030;-77
2022/05/18 03:38:32;;;;;;;15.15;7.10;;;14.60;99.90;;;;;;5123563;27;20047;-77
2022/05/18 03:40:57;;;;;;;11.70;6.90;;;14.60;99.90;;;;;;5119054;27;20043;-77
2022/05/18 03:43:24;;;;;;;10.82;7.03;;;14.50;99.90;;;;;;5118012;27;20045;-77
2022/05/18 03:45:50;;;;;;;14.35;6.78;;;14.50;99.90;;;;;;5103040;27;20035;-77
2022/05/18 03:48:17;;;;;;;10.82;6.70;;;14.50;99.90;;;;;;5129745;27;20070;-77
2022/05/18 03:50:46;;;;;;;11.27;6.88;;;14.50;99.90;;;;;;5140463;27;20035;-77
2022/05/18 03:53:12;;;;;;;10.88;6.43;;;14.50;99.90;;;;;;5118903;27;20052;-77
2022/05/18 03:55:40;;;;;;;10.93;6.40;;;14.50;99.90;;;;;;5118263;27;20129;-77
2022/05/18 03:58:07;;;;;;;11.45;7.35;;;14.40;99.90;;;;;;5136047;27;20055;-77
2022/05/18 04:00:33;;;;;;;10.80;6.78;;;14.40;99.90;;;;;;5118196;27;20053;-77
2022/05/18 04:03:00;;;;;;;11.07;6.53;;;14.30;99.90;;;;;;5119640;27;20050;-77
2022/05/18 04:05:26;;;;;;;9.95;6.60;;;14.30;99.90;;;;;;5122247;27;20039;-77
2022/05/18 04:07:52;;;;;;;13.40;6.93;;;14.30;99.90;;;;;;5118886;27;20046;-77
2022/05/18 04:10:19;;;;;;;8.95;6.60;;;14.30;99.90;;;;;;5117963;27;20095;-77
2022/05/18 04:12:45;;;;;;;10.30;6.55;;;14.30;99.90;;;;;;5117921;27;20432;-77
2022/05/18 04:15:16;;;;;;;10.90;7.00;;;14.20;99.90;;;;;;5121804;27;20035;-77
2022/05/18 04:17:43;;;;;;;12.18;6.85;;;14.20;99.90;;;;;;5100486;27;20100;-77
2022/05/18 04:20:09;;;;;;;11.13;6.60;;;14.30;99.90;;;;;;5118119;27;20115;-77
2022/05/18 04:22:36;;;;;;;13.52;7.03;;;14.30;99.90;;;;;;5118481;27;20069;-77
2022/05/18 04:25:04;;;;;;;10.60;7.22;;;14.30;99.90;;;;;;5136996;27;20043;-77
2022/05/18 04:27:31;;;;;;;13.68;7.47;;;14.40;99.90;;;;;;5118479;27;20051;-77
2022/05/18 04:29:57;;;;;;;9.52;7.40;;;14.40;99.90;;;;;;5117844;27;20122;-77
2022/05/18 04:32:23;;;;;;;7.55;6.60;;;14.40;99.90;;;;;;5117310;27;20062;-76
2022/05/18 04:34:49;;;;;;;10.60;6.72;;;14.50;99.90;;;;;;5138451;27;20031;-77
2022/05/18 04:37:16;;;;;;;8.80;6.68;;;14.50;99.90;;;;;;5117872;27;20043;-77
2022/05/18 04:39:42;;;;;;;9.63;6.53;;;14.60;99.90;;;;;;5144011;27;20668;-77
2022/05/18 04:42:08;;;;;;;9.68;6.68;;;14.70;99.90;;;;;;5135595;27;20047;-77
2022/05/18 04:44:35;;;;;;;12.75;7.22;;;14.70;99.90;;;;;;5117736;27;20099;-77
2022/05/18 04:47:01;;;;;;;9.65;7.15;;;14.80;99.90;;;;;;5101089;27;20504;-77
2022/05/18 04:49:28;;;;;;;11.15;7.07;;;15.00;99.90;;;;;;5135759;27;20043;-77
2022/05/18 04:51:54;;;;;;;10.95;7.65;;;15.10;99.90;;;;;;5138092;27;20077;-77
2022/05/18 04:54:19;;;;;;;8.73;7.43;;;15.20;99.90;;;;;;5132978;27;20065;-77
2022/05/18 04:56:46;;;;;;;12.93;7.63;;;15.30;99.90;;;;;;5137886;27;20059;-77
2022/05/18 04:59:12;;;;;;;10.88;7.07;;;15.50;99.90;;;;;;5130740;27;20042;-77
2022/05/18 05:01:38;;;;;;;10.50;7.40;;;15.60;99.90;;;;;;5116934;27;20043;-77
2022/05/18 05:04:09;;;;;;;13.38;7.53;;;15.70;99.90;;;;;;5118327;27;20099;-77
2022/05/18 05:06:36;;;;;;;13.38;7.32;;;15.80;99.90;;;;;;5135728;27;20043;-78
2022/05/18 05:09:06;;;;;;;15.48;8.30;;;16.00;99.90;;;;;;5134515;27;20110;-77
2022/05/18 05:11:32;;;;;;;14.25;8.18;;;16.10;99.90;;;;;;5135894;27;20050;-78
2022/05/18 05:13:58;;;;;;;10.50;7.75;;;16.20;99.90;;;;;;5134298;27;20043;-79
2022/05/18 05:16:23;;;;;;;12.35;7.63;;;16.30;99.90;;;;;;5100472;27;20042;-77
2022/05/18 05:18:49;;;;;;;15.07;7.90;;;16.40;99.90;;;;;;5156088;27;20054;-78
2022/05/18 05:21:15;;;;;;;17.25;8.35;;;16.50;99.90;;;;;;5131169;27;20043;-78
2022/05/18 05:23:40;;;;;;;13.75;7.22;;;16.50;99.90;;;;;;5155261;27;20042;-78
2022/05/18 05:26:06;;;;;;;12.07;8.40;;;16.60;99.90;;;;;;5146191;27;20501;-77
2022/05/18 05:28:32;;;;;;;12.00;7.72;;;16.70;99.90;;;;;;5116216;27;20429;-77
2022/05/18 05:31:05;;;;;;;11.85;7.72;;;16.80;99.90;;;;;;5123638;27;20039;-77
2022/05/18 05:33:31;;;;;;;13.57;8.05;;;16.90;99.90;;;;;;5137430;27;20496;-77
2022/05/18 05:35:58;;;;;;;11.55;7.55;;;17.00;99.90;;;;;;5141356;27;20039;-77
2022/05/18 05:38:24;;;;;;;12.30;7.35;;;17.10;99.90;;;;;;5116838;27;20047;-77
2022/05/18 05:40:50;;;;;;;15.45;7.85;;;17.30;99.90;;;;;;5150437;27;20043;-78
2022/05/18 05:43:16;;;;;;;14.48;7.97;;;17.40;99.90;;;;;;5143137;27;20046;-78
2022/05/18 05:45:42;;;;;;;14.68;8.10;;;17.50;99.90;;;;;;5099587;27;20039;-78
2022/05/18 05:48:09;;;;;;;10.50;7.90;;;17.60;99.90;;;;;;5118036;27;20391;-78
2022/05/18 05:50:35;;;;;;;16.83;8.07;;;17.70;99.90;;;;;;5135579;27;20034;-78
2022/05/18 05:53:01;;;;;;;16.02;7.97;;;17.70;99.90;;;;;;5136186;27;20129;-78
2022/05/18 05:55:28;;;;;;;12.68;7.97;;;17.60;99.90;;;;;;5099523;27;20085;-78
2022/05/18 05:57:56;;;;;;;14.63;8.95;;;17.60;99.90;;;;;;5138970;27;20482;-78
2022/05/18 06:00:23;;;;;;;9.27;7.85;;;17.50;99.90;;;;;;5117143;27;20043;-78
2022/05/18 06:02:52;;;;;;;10.32;8.18;;;17.50;99.90;;;;;;5148945;27;20129;-78
2022/05/18 06:05:18;;;;;;;14.25;8.27;;;17.60;99.90;;;;;;5119172;27;20038;-78
2022/05/18 06:07:44;;;;;;;13.27;8.25;;;17.70;99.90;;;;;;5134088;27;20079;-78
2022/05/18 06:10:11;;;;;;;12.23;8.82;;;17.80;99.90;;;;;;5115534;27;20483;-78
2022/05/18 06:12:38;;;;;;;15.75;8.70;;;17.90;99.90;;;;;;5118424;27;20375;-78
2022/05/18 06:15:08;;;;;;;12.70;9.00;;;18.00;99.90;;;;;;5116905;27;20449;-77
2022/05/18 06:17:34;;;;;;;14.38;8.98;;;18.10;99.90;;;;;;5132217;27;20463;-77
2022/05/18 06:20:00;;;;;;;10.60;7.43;;;18.20;99.90;;;;;;5127880;27;20126;-78
2022/05/18 06:22:26;;;;;;;13.48;8.95;;;18.30;99.90;;;;;;5136439;27;20133;-78
2022/05/18 06:24:52;;;;;;;15.45;9.75;;;18.40;99.90;;;;;;5118782;27;20389;-78
2022/05/18 06:27:21;;;;;;;12.43;9.02;;;18.60;99.90;;;;;;5154928;27;20478;-78
2022/05/18 06:29:50;;;;;;;11.57;9.20;;;18.70;99.90;;;;;;5127492;27;20047;-77
2022/05/18 06:32:17;;;;;;;12.40;8.75;;;18.80;99.90;;;;;;5117291;28;20039;-78
2022/05/18 06:34:44;;;;;;;16.42;8.75;;;19.00;99.90;;;;;;5115881;28;20051;-78
2022/05/18 06:37:11;;;;;;;14.85;9.60;;;19.10;99.90;;;;;;5104624;27;20042;-77
2022/05/18 06:39:37;;;;;;;13.25;9.30;;;19.30;99.90;;;;;;5118526;27;20038;-77
2022/05/18 06:42:04;;;;;;;12.45;9.15;;;19.40;99.90;;;;;;5147838;27;20039;-78
2022/05/18 06:44:29;;;;;;;13.50;9.25;;;19.50;99.90;;;;;;5116195;28;20043;-77
2022/05/18 06:46:59;;;;;;;13.77;8.98;;;19.60;99.90;;;;;;5136726;27;20040;-78
2022/05/18 06:49:29;;;;;;;13.68;9.82;;;19.70;99.90;;;;;;5115796;28;20039;-78
2022/05/18 06:51:58;;;;;;;12.38;8.38;;;19.80;99.90;;;;;;5139144;27;20053;-77
2022/05/18 06:54:24;;;;;;;14.70;8.90;;;19.90;99.90;;;;;;5137956;27;20035;-78
2022/05/18 06:56:50;;;;;;;12.73;8.63;;;20.00;99.90;;;;;;5116282;28;20383;-78
2022/05/18 06:59:16;;;;;;;14.77;8.15;;;20.00;99.90;;;;;;5133887;28;20482;-78
2022/05/18 07:01:42;;;;;;;9.73;7.40;;;20.10;99.90;;;;;;5115171;28;20035;-78
2022/05/18 07:04:11;;;;;;;12.68;8.70;;;20.20;99.90;;;;;;5099591;27;20057;-78
2022/05/18 07:06:40;;;;;;;10.90;7.57;;;20.20;99.90;;;;;;5120461;27;20510;-78
2022/05/18 07:09:10;;;;;;;11.75;7.22;;;20.30;99.90;;;;;;5119478;27;20039;-78
2022/05/18 07:11:36;;;;;;;10.98;7.20;;;20.40;99.90;;;;;;5137112;27;20070;-78
2022/05/18 07:14:03;;;;;;;14.68;7.90;;;20.40;99.90;;;;;;5137019;27;20082;-78
2022/05/18 07:16:29;;;;;;;9.40;6.25;;;20.40;99.90;;;;;;5118922;27;20057;-78
2022/05/18 07:18:55;;;;;;;9.90;6.50;;;20.50;99.90;;;;;;5158298;27;20057;-78
2022/05/18 07:21:22;;;;;;;10.20;6.07;;;20.60;99.90;;;;;;5154259;27;20481;-78
2022/05/18 07:23:48;;;;;;;8.98;5.88;;;20.60;99.90;;;;;;5158490;27;20103;-77
2022/05/18 07:26:16;;;;;;;10.15;5.68;;;20.70;99.90;;;;;;5146489;27;20561;-78
2022/05/18 07:28:46;;;;;;;10.13;6.03;;;20.80;99.90;;;;;;5136967;27;20039;-79
2022/05/18 07:31:14;;;;;;;8.07;5.88;;;20.90;99.90;;;;;;5143823;27;20443;-78
2022/05/18 07:33:40;;;;;;;9.73;5.97;;;21.00;99.90;;;;;;5132540;27;20058;-78
2022/05/18 07:36:07;;;;;;;8.43;6.25;;;21.10;99.90;;;;;;5149752;27;20164;-79
2022/05/18 07:38:34;;;;;;;13.57;7.00;;;21.20;99.90;;;;;;5136315;27;20401;-80
2022/05/18 07:41:01;;;;;;;9.88;6.00;;;21.20;99.90;;;;;;5119005;27;20039;-79
2022/05/18 07:43:27;;;;;;;9.80;6.53;;;21.30;99.90;;;;;;5117800;27;20051;-79
2022/05/18 07:45:55;;;;;;;12.52;6.10;;;21.30;99.90;;;;;;5138000;27;20502;-78
2022/05/18 07:48:22;;;;;;;10.32;6.22;;;21.40;99.90;;;;;;5149807;27;20061;-78
2022/05/18 07:50:49;;;;;;;9.82;6.75;;;21.50;99.90;;;;;;5150818;27;20042;-78
2022/05/18 07:53:15;;;;;;;9.27;6.35;;;21.50;99.90;;;;;;5119074;27;20115;-78
2022/05/18 07:55:41;;;;;;;14.70;6.20;;;21.50;99.90;;;;;;5151844;27;20043;-79
2022/05/18 07:58:09;;;;;;;8.15;6.20;;;21.70;99.90;;;;;;5157489;27;20082;-78
2022/05/18 08:00:36;;;;;;;9.98;5.95;;;21.70;99.90;;;;;;5147512;27;20099;-78
2022/05/18 08:03:02;;;;;;;16.58;6.30;;;21.70;99.90;;;;;;5156818;27;20472;-78
2022/05/18 08:05:30;;;;;;;8.52;6.65;;;21.70;99.90;;;;;;5157853;27;20371;-78
2022/05/18 08:07:56;;;;;;;7.60;5.75;;;21.80;99.90;;;;;;5143097;27;20457;-78
2022/05/18 08:15:55;;;;;;;13.82;7.05;;;21.90;99.90;;;;;;5134189;27;20482;-79
2022/05/18 08:18:21;;;;;;;49.75;8.05;;;22.00;99.90;;;;;;5135921;27;20050;-78
2022/05/18 08:20:48;;;;;;;12.07;6.68;;;22.10;99.90;;;;;;5137604;27;20082;-78
2022/05/18 08:23:15;;;;;;;12.00;7.32;;;22.20;99.90;;;;;;5157341;27;20409;-79
2022/05/18 08:25:43;;;;;;;12.80;6.72;;;22.30;99.90;;;;;;5135927;27;20474;-79
2022/05/18 08:28:09;;;;;;;16.92;7.38;;;22.30;99.90;;;;;;5151124;27;20047;-77
2022/05/18 08:30:36;;;;;;;11.75;6.70;;;22.50;99.90;;;;;;5121411;27;20043;-79
2022/05/18 08:33:02;;;;;;;12.52;7.55;;;22.50;99.90;;;;;;5137443;27;20401;-79
2022/05/18 08:35:30;;;;;;;11.60;6.47;;;22.60;99.90;;;;;;5136403;27;20118;-78
2022/05/18 08:37:57;;;;;;;11.98;7.05;;;22.70;99.90;;;;;;5134788;27;20474;-79
2022/05/18 08:40:29;;;;;;;17.95;7.88;;;22.70;99.90;;;;;;5136153;27;20058;-80
2022/05/18 08:43:07;;;;;;;16.63;7.97;;;22.80;99.90;;;;;;5135533;27;20046;-79
2022/05/18 08:45:39;;;;;;;11.98;7.57;;;22.80;99.90;;;;;;5118050;27;20039;-79
2022/05/18 08:48:25;;;;;;;20.20;8.38;;;22.80;99.90;;;;;;5118912;27;20043;-79
2022/05/18 08:50:54;;;;;;;15.40;8.32;;;22.90;99.90;;;;;;5117674;27;20043;-79
2022/05/18 08:53:46;;;;;;;11.00;6.95;;;22.90;99.90;;;;;;5116449;27;20111;-80
2022/05/18 08:56:20;;;;;;;14.25;7.95;;;22.90;99.90;;;;;;5135243;27;20130;-79
2022/05/18 08:58:53;;;;;;;;;;;22.90;99.90;;;;;;5134478;27;20424;-79
2022/05/18 09:01:36;;;;;;;12.80;8.63;;;22.90;99.90;;;;;;5116907;27;20378;-79
2022/05/18 09:04:06;;;;;;;14.25;8.15;;;22.90;99.90;;;;;;5151797;27;20086;-80
2022/05/18 09:06:41;;;;;;;13.25;8.43;;;23.00;99.90;;;;;;5153263;27;21299;-80
2022/05/18 09:12:01;;;;;;;14.82;8.57;;;23.00;99.90;;;;;;5135127;27;20043;-80
2022/05/18 09:14:32;;;;;;;14.30;8.90;;;23.10;99.90;;;;;;5134665;27;20046;-80
2022/05/18 09:17:01;;;;;;;17.70;9.70;;;23.10;99.90;;;;;;5117462;27;20066;-80
2022/05/18 09:20:01;;;;;;;18.27;9.95;;;23.20;99.90;;;;;;5147626;27;20054;-80
2022/05/18 09:22:35;;;;;;;20.27;10.10;;;23.30;99.90;;;;;;5135244;27;20046;-80
2022/05/18 09:25:15;;;;;;;17.77;10.40;;;23.30;99.90;;;;;;5099478;27;20517;-79
2022/05/18 09:28:18;;;;;;;15.30;9.50;;;23.30;99.90;;;;;;5118294;27;20494;-79
2022/05/18 09:30:55;;;;;;;12.35;9.00;;;23.40;99.90;;;;;;5135925;27;20121;-79
2022/05/18 09:33:39;;;;;;;16.35;9.88;;;23.40;99.90;;;;;;5137721;27;20094;-80
2022/05/18 09:36:38;;;;;;;17.48;9.45;;;23.50;99.90;;;;;;5146498;27;20096;-78
2022/05/18 09:39:10;;;;;;;13.82;9.13;;;23.50;99.90;;;;;;5135138;27;20051;-80
2022/05/18 09:41:59;;;;;;;18.25;9.57;;;23.60;99.90;;;;;;5110386;27;20042;-79
2022/05/18 09:44:40;;;;;;;11.27;8.70;;;23.60;99.90;;;;;;5155582;27;20046;-80
2022/05/18 09:47:08;;;;;;;19.20;9.32;;;23.70;99.90;;;;;;5121120;27;20382;-80
2022/05/18 09:49:53;;;;;;;16.33;10.55;;;23.80;99.90;;;;;;5135221;27;20043;-80
2022/05/18 09:52:26;;;;;;;17.80;11.13;;;23.80;99.90;;;;;;5131981;27;20103;-80
2022/05/18 09:54:55;;;;;;;17.02;11.10;;;23.90;99.90;;;;;;5130260;27;20513;-80
2022/05/18 09:57:33;;;;;;;20.27;12.60;;;23.90;99.90;;;;;;5110542;28;20051;-79
2022/05/18 10:00:04;;;;;;;16.45;11.60;;;24.00;99.90;;;;;;5115094;28;20055;-78
2022/05/18 10:08:12;;;;;;;17.88;11.45;;;24.10;99.90;;;;;;5132926;27;20158;-80
2022/05/18 10:10:38;;;;;;;16.50;10.25;;;24.20;99.90;;;;;;5122535;27;20078;-79
2022/05/18 10:13:27;;;;;;;14.55;11.35;;;24.30;99.90;;;;;;5112734;28;20044;-78
2022/05/18 10:16:19;;;;;;;12.25;10.35;;;24.30;99.90;;;;;;5112247;27;20040;-80
2022/05/18 10:18:48;;;;;;;22.42;12.50;;;24.40;99.90;;;;;;5113697;28;20062;-80
2022/05/18 10:21:33;;;;;;;18.05;10.93;;;24.50;99.90;;;;;;5112510;28;20391;-79
2022/05/18 10:24:27;;;;;;;18.05;10.68;;;24.50;99.90;;;;;;5111924;28;20055;-79
2022/05/18 10:27:14;;;;;;;15.00;10.65;;;24.50;99.90;;;;;;5075503;28;20048;-79
2022/05/18 10:29:42;;;;;;;20.00;11.65;;;24.50;99.90;;;;;;5096737;28;20043;-79
2022/05/18 10:32:21;;;;;;;15.90;12.20;;;24.50;99.90;;;;;;5131643;27;20047;-80
2022/05/18 10:34:51;;;;;;;20.83;11.48;;;24.60;99.90;;;;;;5112751;28;20044;-79
2022/05/18 10:37:32;;;;;;;16.00;11.35;;;24.60;99.90;;;;;;5119450;28;20036;-80
2022/05/18 10:40:02;;;;;;;14.75;11.13;;;24.60;99.90;;;;;;5133485;27;20043;-79
2022/05/18 10:42:50;;;;;;;17.23;13.27;;;24.60;99.90;;;;;;5137454;27;20042;-79
2022/05/18 10:45:25;;;;;;;19.58;13.50;;;24.60;99.90;;;;;;5136624;27;20051;-79
2022/05/18 10:47:53;;;;;;;16.58;11.57;;;24.60;99.90;;;;;;5137769;27;20505;-79
2022/05/18 10:50:25;;;;;;;20.98;13.30;;;24.60;99.90;;;;;;5138215;27;20039;-80
2022/05/18 10:53:00;;;;;;;18.20;12.80;;;24.70;99.90;;;;;;5134995;27;20071;-80
2022/05/18 10:55:28;;;;;;;18.13;13.13;;;24.70;99.90;;;;;;5138636;27;20046;-79
2022/05/18 10:58:11;;;;;;;15.25;11.57;;;24.60;99.90;;;;;;5119557;27;20054;-80
2022/05/18 11:00:50;;;;;;;19.40;11.52;;;24.70;99.90;;;;;;5137699;27;20439;-79
2022/05/18 11:03:29;;;;;;;17.30;12.35;;;24.70;99.90;;;;;;5137112;27;20047;-80
2022/05/18 11:06:04;;;;;;;17.40;13.82;;;24.70;99.90;;;;;;5118927;27;20090;-80
2022/05/18 11:08:33;;;;;;;15.82;11.80;;;24.80;99.90;;;;;;5137956;27;20039;-79
2022/05/18 11:11:21;;;;;;;15.90;10.73;;;24.80;99.90;;;;;;5119664;27;20055;-79
2022/05/18 11:13:54;;;;;;;13.40;10.82;;;24.90;99.90;;;;;;5137492;27;20447;-78
2022/05/18 11:16:23;;;;;;;11.93;9.95;;;24.90;99.90;;;;;;5134270;27;20123;-79
2022/05/18 11:19:02;;;;;;;23.40;10.88;;;25.00;99.90;;;;;;5116179;28;20059;-78
2022/05/18 11:21:35;;;;;;;13.75;10.98;;;25.10;99.90;;;;;;5115641;28;20047;-79
2022/05/18 11:24:07;;;;;;;15.10;11.50;;;25.10;99.90;;;;;;5099422;28;20364;-79
2022/05/18 11:26:56;;;;;;;15.10;11.02;;;25.20;99.90;;;;;;5127260;27;20046;-79
2022/05/18 11:29:46;;;;;;;14.18;10.43;;;25.20;99.90;;;;;;5118738;27;20055;-79
2022/05/18 11:32:26;;;;;;;17.48;10.25;;;25.30;99.90;;;;;;5136510;27;20043;-79
2022/05/18 11:35:02;;;;;;;13.57;10.48;;;25.40;99.90;;;;;;5136979;27;20053;-78
2022/05/18 11:37:42;;;;;;;13.05;9.15;;;25.40;99.90;;;;;;5137267;27;20394;-79
2022/05/18 11:40:32;;;;;;;15.23;9.65;;;25.50;99.90;;;;;;5137872;27;20100;-79
2022/05/18 11:43:28;;;;;;;10.95;8.88;;;25.50;99.90;;;;;;5135597;27;20050;-78
2022/05/18 11:46:23;;;;;;;18.27;9.88;;;25.60;99.90;;;;;;5137587;27;20046;-79
2022/05/18 11:49:15;;;;;;;15.00;10.70;;;25.60;99.90;;;;;;5136854;27;20042;-78
2022/05/18 11:52:02;;;;;;;14.52;11.52;;;25.50;99.90;;;;;;5126822;27;20047;-79
2022/05/18 11:54:56;;;;;;;17.35;11.18;;;25.50;99.90;;;;;;5116819;28;20048;-78
2022/05/18 11:57:31;;;;;;;14.82;10.50;;;25.60;99.90;;;;;;5129873;27;20055;-78
2022/05/18 12:03:25;;;;;;;14.55;10.02;;;25.70;99.90;;;;;;5117964;27;20062;-79
2022/05/18 12:06:15;;;;;;;19.85;11.85;;;25.60;99.90;;;;;;5146967;27;20039;-79
2022/05/18 12:09:20;;;;;;;16.48;11.10;;;25.50;99.90;;;;;;5139660;27;20057;-79
2022/05/18 12:12:04;;;;;;;14.75;10.95;;;25.40;99.90;;;;;;5056387;27;20057;-78
2022/05/18 12:14:48;;;;;;;16.63;10.80;;;25.30;99.90;;;;;;5139216;27;20043;-79
2022/05/18 12:17:30;;;;;;;24.70;10.93;;;25.40;99.90;;;;;;5138177;27;20046;-79
2022/05/18 12:20:05;;;;;;;14.07;10.48;;;25.50;99.90;;;;;;5134227;27;20092;-79
2022/05/18 12:22:36;;;;;;;15.18;12.45;;;25.60;99.90;;;;;;5118577;27;20035;-78
2022/05/18 12:25:03;;;;;;;15.73;10.80;;;25.70;99.90;;;;;;5135912;27;20126;-79
2022/05/18 12:27:30;;;;;;;16.20;12.13;;;25.50;99.90;;;;;;5136790;27;20482;-79
2022/05/18 12:29:58;;;;;;;19.25;12.45;;;25.40;99.90;;;;;;5117817;27;20047;-78
2022/05/18 12:32:25;;;;;;;17.38;12.32;;;25.30;99.90;;;;;;5136691;27;20114;-79
2022/05/18 12:35:12;;;;;;;19.20;11.68;;;25.20;99.90;;;;;;5118402;27;20391;-79
2022/05/18 12:38:04;;;;;;;17.92;12.38;;;25.20;99.90;;;;;;5135589;27;20456;-79
2022/05/18 12:40:45;;;;;;;20.90;12.00;;;25.20;99.90;;;;;;5136624;27;20046;-79
2022/05/18 12:43:25;;;;;;;18.02;12.05;;;25.20;99.90;;;;;;5118033;27;20108;-79
2022/05/18 12:45:58;;;;;;;17.15;11.05;;;25.20;99.90;;;;;;5100202;27;20047;-79
2022/05/18 12:48:34;;;;;;;17.25;11.73;;;25.10;99.90;;;;;;5131975;27;20042;-78
2022/05/18 12:51:06;;;;;;;15.98;12.55;;;25.10;99.90;;;;;;5156385;27;20039;-79
2022/05/18 12:54:00;;;;;;;14.40;11.13;;;25.10;99.90;;;;;;5138427;27;20046;-78
2022/05/18 12:56:47;;;;;;;15.90;11.02;;;24.90;99.90;;;;;;5104163;27;20552;-79
2022/05/18 12:59:18;;;;;;;16.35;9.98;;;24.70;99.90;;;;;;5137372;27;20054;-78
2022/05/18 13:01:47;;;;;;;15.32;10.60;;;24.60;99.90;;;;;;5154216;27;20478;-78
2022/05/18 13:04:16;;;;;;;17.90;9.65;;;24.70;99.90;;;;;;5138047;27;20121;-79
2022/05/18 13:06:49;;;;;;;16.05;11.27;;;24.70;99.90;;;;;;5156267;27;20046;-80
2022/05/18 13:09:27;;;;;;;19.57;13.03;;;24.80;99.90;;;;;;5121667;27;20049;-79
2022/05/18 13:12:27;;;;;;;16.83;12.75;;;24.90;99.90;;;;;;5138176;27;20120;-79
2022/05/18 13:15:24;;;;;;;17.55;11.52;;;24.80;99.90;;;;;;5156689;27;20049;-79
2022/05/18 13:18:03;;;;;;;15.15;10.80;;;24.70;99.90;;;;;;5133558;27;20047;-80
2022/05/18 13:20:42;;;;;;;21.77;13.55;;;24.80;99.90;;;;;;5116472;27;20127;-78